Forside
METAR-TAF:

METAR-TAF

Lufthavne :

N'Djamena internationale lufthavn

N'Djamena, Tchad

Breddekreds: 12-08N, længdekreds: 015-02E, højde: 295 m

Aktuelle vejr

Denne rapport blev lavet for 24 minutter siden, kl. 16:00 UTC
Vind 11 kt fra nordøst
Temperatur 37°C
Fugtighed 13%
Tryk 1008 hPa
Sigt 10 km eller mere
ingen skyer under 1500m og ingen cumulonimbus

METAR: FTTJ 161600Z 04011KT CAVOK 37/04 Q1008 NOSIG

Tid: 17:24 (16:24 UTC)

Vejrudsigter

Denne rapport blev lavet for 5 timer og 24 minutter siden, kl. 11:00 UTC
Foreløbig gælder fra 16 på 12 UTC til 17 på 18 UTC
Vind 6 kt fra øst
Sigt: 8000 m

TAF: FTTJ 161100Z 1612/1718 08006KT 8000 NSC

Vejrobservationer og prognoser fra mere end 4000 lufthavne (METAR og TAF).

De gule og røde prikker repræsenterer de meteorologiske stationer.

Flyt musen over at se navnet på stationen.

Så klik over at se vejr observationer og prognoser.

At skifte det kort: Klik på de grønne knapper med et sort kors for at zoome ind; på den grønne knap med en bindestreg for at zoome ud; eller på de grønne pile for tilstødende kort.


METAR-TAF: